Time;durP1;ratioP1;P1;durP2;ratioP2;P2;SDS_P1;SDS_P2;PMS_P1;PMS_P2;Temp;Humidity;BMP_temperature;BMP_pressure;BME280_temperature;BME280_humidity;BME280_pressure;Samples;Min_cycle;Max_cycle;Signal;HPM_P1;HPM_P2
2022/04/09 00:00:16;;;;;;;15.45;3.47;;;;;;;3.30;79.84;100327.13;5003747;28;20026;-77
2022/04/09 00:02:42;;;;;;;13.45;2.53;;;;;;;3.25;80.00;100318.88;5008149;28;20566;-77
2022/04/09 00:05:09;;;;;;;12.15;2.95;;;;;;;3.26;80.05;100325.66;4996821;28;20087;-78
2022/04/09 00:07:35;;;;;;;14.70;3.35;;;;;;;3.22;80.11;100324.22;5008263;28;20042;-77
2022/04/09 00:10:01;;;;;;;17.02;3.30;;;;;;;3.26;80.46;100336.72;5006265;28;20033;-76
2022/04/09 00:12:27;;;;;;;15.98;2.95;;;;;;;3.23;80.42;100331.81;5007819;28;20034;-76
2022/04/09 00:14:52;;;;;;;14.07;2.92;;;;;;;3.22;80.20;100334.47;5008556;28;20486;-76
2022/04/09 00:17:17;;;;;;;14.05;3.05;;;;;;;3.19;80.35;100328.59;4996002;28;20045;-77
2022/04/09 00:19:43;;;;;;;13.63;2.95;;;;;;;3.20;80.20;100337.91;4987869;28;20030;-76
2022/04/09 00:22:08;;;;;;;10.85;2.83;;;;;;;3.21;80.15;100349.00;4988120;28;20034;-76
2022/04/09 00:24:33;;;;;;;11.30;2.70;;;;;;;3.22;80.55;100360.09;4988106;28;20030;-76
2022/04/09 00:26:59;;;;;;;18.02;3.30;;;;;;;3.26;80.47;100361.53;4987235;28;20038;-76
2022/04/09 00:29:24;;;;;;;14.57;3.50;;;;;;;3.22;81.05;100365.22;5008102;28;20030;-76
2022/04/09 00:31:50;;;;;;;15.85;3.15;;;;;;;3.25;80.96;100365.03;5007672;28;20036;-76
2022/04/09 00:34:15;;;;;;;13.65;2.92;;;;;;;3.23;80.61;100377.09;5007757;28;20030;-76
2022/04/09 00:36:40;;;;;;;14.23;3.22;;;;;;;3.24;80.55;100384.69;5008326;28;20026;-76
2022/04/09 00:39:06;;;;;;;19.23;3.00;;;;;;;3.03;81.31;100350.88;4972473;28;20026;-77
2022/04/09 00:41:32;;;;;;;14.93;2.90;;;;;;;3.15;81.74;100390.34;4988210;28;20084;-77
2022/04/09 00:43:57;;;;;;;13.27;2.85;;;;;;;3.10;81.35;100374.44;4989379;28;20046;-77
2022/04/09 00:46:23;;;;;;;14.02;2.70;;;;;;;3.14;80.93;100384.41;4974662;28;20509;-77
2022/04/09 00:48:49;;;;;;;14.77;2.78;;;;;;;3.09;81.03;100391.53;4999395;28;20463;-77
2022/04/09 00:51:14;;;;;;;13.18;2.67;;;;;;;3.15;81.33;100396.31;4999377;28;20025;-76
2022/04/09 00:53:42;;;;;;;12.57;2.65;;;;;;;3.07;81.04;100388.22;5007507;28;20109;-77
2022/04/09 00:56:13;;;;;;;14.82;3.05;;;;;;;3.10;81.21;100408.56;4992635;28;20042;-77
2022/04/09 00:59:01;;;;;;;14.77;2.75;;;;;;;3.18;80.90;100410.69;4989560;28;20038;-76
2022/04/09 01:01:31;;;;;;;14.25;2.88;;;;;;;3.08;80.87;100407.00;4997200;28;20034;-76
2022/04/09 01:03:59;;;;;;;14.25;2.97;;;;;;;3.09;81.27;100412.03;4987740;28;20125;-77
2022/04/09 01:06:25;;;;;;;12.63;2.80;;;;;;;3.06;81.07;100412.22;5004652;28;20030;-77
2022/04/09 01:08:50;;;;;;;12.40;2.72;;;;;;;3.12;80.54;100434.91;5006696;28;20897;-77
2022/04/09 01:11:16;;;;;;;12.38;3.15;;;;;;;3.05;80.60;100428.50;4988490;28;20036;-77
2022/04/09 01:13:42;;;;;;;10.30;2.75;;;;;;;3.15;80.84;100439.88;5004375;28;20117;-77
2022/04/09 01:16:08;;;;;;;10.68;2.33;;;;;;;3.06;80.88;100421.63;5006212;28;20494;-77
2022/04/09 01:18:34;;;;;;;12.98;2.72;;;;;;;3.15;80.71;100442.44;5005395;28;20021;-76
2022/04/09 01:21:04;;;;;;;13.65;2.75;;;;;;;3.10;80.83;100434.19;5006668;28;20052;-77
2022/04/09 01:23:31;;;;;;;14.68;2.70;;;;;;;3.13;80.47;100449.38;4987901;28;20108;-77
2022/04/09 01:25:59;;;;;;;11.90;2.42;;;;;;;3.05;80.57;100441.31;4995822;28;20069;-77
2022/04/09 01:28:25;;;;;;;14.07;2.92;;;;;;;3.01;80.89;100429.56;5005957;28;20437;-76
2022/04/09 01:30:51;;;;;;;17.60;2.67;;;;;;;3.10;80.91;100449.56;4989607;28;20387;-76
2022/04/09 01:33:17;;;;;;;14.05;2.60;;;;;;;3.08;80.12;100459.06;5003203;28;20034;-77
2022/04/09 01:35:43;;;;;;;11.07;2.50;;;;;;;3.05;80.66;100461.81;4994520;28;20022;-76
2022/04/09 01:38:09;;;;;;;13.57;2.72;;;;;;;3.08;80.42;100466.75;4987347;28;20068;-77
2022/04/09 01:40:34;;;;;;;14.23;2.88;;;;;;;3.00;80.35;100479.16;5007086;28;20417;-77
2022/04/09 01:43:00;;;;;;;11.77;2.58;;;;;;;3.03;80.95;100483.28;4995274;28;20430;-77
2022/04/09 01:45:27;;;;;;;14.00;3.05;;;;;;;3.00;81.00;100479.16;5006860;28;20022;-77
2022/04/09 01:47:53;;;;;;;13.13;2.27;;;;;;;3.02;80.30;100497.84;4989532;28;20343;-77
2022/04/09 01:50:19;;;;;;;13.77;2.72;;;;;;;3.04;81.20;100496.03;4999522;28;20038;-77
2022/04/09 01:52:44;;;;;;;13.73;2.85;;;;;;;3.03;81.55;100504.59;4987883;28;20045;-77
2022/04/09 01:55:09;;;;;;;14.30;2.78;;;;;;;3.04;81.31;100503.72;4969638;28;20117;-77
2022/04/09 01:57:35;;;;;;;14.38;2.85;;;;;;;3.02;81.92;100505.50;4970764;28;20030;-76
2022/04/09 02:00:01;;;;;;;11.98;2.70;;;;;;;2.98;81.75;100511.72;5003306;28;20525;-77
2022/04/09 02:02:26;;;;;;;13.40;2.95;;;;;;;3.05;81.61;100513.03;5006835;28;20030;-77
2022/04/09 02:04:51;;;;;;;14.32;3.13;;;;;;;3.08;81.42;100542.78;5007014;28;20056;-76
2022/04/09 02:07:17;;;;;;;15.07;3.33;;;;;;;3.04;81.91;100546.41;5007248;28;20374;-76
2022/04/09 02:09:42;;;;;;;16.23;3.60;;;;;;;3.08;82.68;100561.53;4993458;28;20140;-77
2022/04/09 02:12:08;;;;;;;14.98;2.90;;;;;;;3.11;82.86;100553.69;4969907;28;20038;-76
2022/04/09 02:14:34;;;;;;;15.38;3.15;;;;;;;3.07;82.86;100552.22;4969744;28;20026;-77
2022/04/09 02:16:59;;;;;;;13.70;3.10;;;;;;;3.06;83.68;100550.56;5007158;28;20048;-77
2022/04/09 02:19:24;;;;;;;16.50;3.55;;;;;;;3.12;83.52;100560.47;5007066;28;20021;-77
2022/04/09 02:21:49;;;;;;;11.10;2.65;;;;;;;3.06;83.82;100554.88;5006613;28;20096;-76
2022/04/09 02:24:15;;;;;;;15.02;3.38;;;;;;;3.07;83.65;100567.59;4988409;28;20432;-77
2022/04/09 02:26:40;;;;;;;17.30;3.10;;;;;;;3.08;84.21;100584.59;5005543;28;20396;-76
2022/04/09 02:29:05;;;;;;;16.33;3.35;;;;;;;3.02;84.53;100574.69;4997280;28;20147;-76
2022/04/09 02:31:31;;;;;;;17.58;3.75;;;;;;;3.03;84.67;100571.22;4990510;28;20493;-77
2022/04/09 02:33:56;;;;;;;15.63;3.40;;;;;;;3.10;84.51;100577.69;4991399;28;20430;-77
2022/04/09 02:36:22;;;;;;;13.95;3.47;;;;;;;3.01;84.64;100578.16;5006984;28;20038;-77
2022/04/09 02:38:48;;;;;;;15.77;3.47;;;;;;;3.00;84.85;100566.28;4972756;28;20045;-77
2022/04/09 02:41:13;;;;;;;15.32;3.28;;;;;;;3.07;84.42;100595.75;4991542;28;20394;-76
2022/04/09 02:43:40;;;;;;;15.13;3.75;;;;;;;2.97;84.47;100579.22;4990304;28;20383;-77
2022/04/09 02:46:06;;;;;;;15.25;3.58;;;;;;;2.97;83.52;100583.53;4972451;28;20359;-76
2022/04/09 02:48:31;;;;;;;14.85;4.20;;;;;;;2.97;84.12;100591.22;4972383;28;20041;-77
2022/04/09 02:50:57;;;;;;;15.90;3.67;;;;;;;2.91;83.72;100597.50;5002216;28;20406;-76
2022/04/09 02:53:22;;;;;;;13.57;3.47;;;;;;;2.99;83.91;100615.03;5009818;28;20060;-77
2022/04/09 02:55:47;;;;;;;17.40;3.60;;;;;;;3.04;84.76;100628.41;4996800;28;20023;-77
2022/04/09 02:58:13;;;;;;;18.00;3.80;;;;;;;3.07;84.90;100613.69;4972683;28;20042;-77
2022/04/09 03:00:39;;;;;;;14.98;3.35;;;;;;;2.99;85.47;100605.63;5005684;28;20105;-77
2022/04/09 03:03:05;;;;;;;14.65;3.08;;;;;;;3.04;85.02;100616.44;5009467;28;20432;-77
2022/04/09 03:05:30;;;;;;;15.27;3.30;;;;;;;3.07;84.74;100613.69;5009014;28;20526;-77
2022/04/09 03:07:57;;;;;;;13.95;2.90;;;;;;;3.04;84.83;100613.88;4989510;28;20073;-77
2022/04/09 03:10:22;;;;;;;14.77;3.15;;;;;;;3.04;84.42;100613.88;4990659;28;20041;-77
2022/04/09 03:12:48;;;;;;;17.23;3.10;;;;;;;3.03;84.68;100626.75;4989690;28;20456;-78
2022/04/09 03:15:14;;;;;;;15.55;2.95;;;;;;;2.98;84.16;100629.56;4994900;28;20493;-77
2022/04/09 03:17:40;;;;;;;12.90;2.83;;;;;;;2.95;84.25;100632.28;5009628;28;20105;-77
2022/04/09 03:20:06;;;;;;;12.10;2.70;;;;;;;2.99;84.22;100631.22;5009324;28;20022;-78
2022/04/09 03:22:32;;;;;;;13.27;2.83;;;;;;;2.91;83.75;100623.94;5007442;28;20041;-77
2022/04/09 03:24:58;;;;;;;17.20;3.53;;;;;;;2.94;83.51;100633.22;4989720;28;20080;-78
2022/04/09 03:27:25;;;;;;;11.95;2.63;;;;;;;2.98;83.26;100644.94;4996344;28;20493;-77
2022/04/09 03:29:51;;;;;;;11.75;2.80;;;;;;;2.88;83.08;100633.53;5009529;28;20105;-78
2022/04/09 03:32:16;;;;;;;11.00;2.55;;;;;;;2.88;83.04;100643.78;4995348;28;20022;-78
2022/04/09 03:34:42;;;;;;;10.68;2.50;;;;;;;2.88;82.95;100654.03;4989840;28;20026;-78
2022/04/09 03:37:08;;;;;;;10.50;1.92;;;;;;;2.89;82.83;100646.25;4989997;28;20040;-78
2022/04/09 03:39:35;;;;;;;10.05;2.05;;;;;;;2.88;83.02;100648.91;4989457;28;20034;-78
2022/04/09 03:42:01;;;;;;;7.95;2.05;;;;;;;2.86;83.06;100655.81;5009165;28;20034;-78
2022/04/09 03:44:26;;;;;;;8.07;2.00;;;;;;;2.77;83.58;100640.94;5006412;28;20478;-78
2022/04/09 03:47:02;;;;;;;9.77;1.90;;;;;;;2.85;83.08;100660.13;4990744;28;20056;-77
2022/04/09 03:49:32;;;;;;;9.73;1.90;;;;;;;2.78;83.23;100658.78;5008521;28;20022;-77
2022/04/09 03:51:58;;;;;;;10.00;2.40;;;;;;;2.81;83.88;100658.66;4981846;28;20062;-77
2022/04/09 03:54:23;;;;;;;8.80;2.17;;;;;;;2.82;83.65;100664.59;4989588;28;20053;-77
2022/04/09 03:56:49;;;;;;;11.98;2.38;;;;;;;2.83;83.53;100691.84;4988935;28;20033;-77
2022/04/09 03:59:15;;;;;;;14.82;2.65;;;;;;;2.79;83.64;100695.47;4991417;28;20030;-77
2022/04/09 04:01:43;;;;;;;13.95;2.75;;;;;;;2.81;83.58;100671.44;5007860;28;20026;-78
2022/04/09 04:04:10;;;;;;;11.88;2.45;;;;;;;2.90;83.88;100682.94;4989323;28;20113;-77
2022/04/09 04:06:36;;;;;;;11.55;2.80;;;;;;;2.90;83.11;100688.06;4989189;28;20076;-78
2022/04/09 04:09:01;;;;;;;11.07;2.50;;;;;;;2.93;83.70;100687.91;5007723;28;20033;-78
2022/04/09 04:11:27;;;;;;;12.80;2.97;;;;;;;2.86;83.56;100684.00;4982936;28;20034;-77
2022/04/09 04:13:53;;;;;;;13.73;2.80;;;;;;;2.93;83.37;100690.47;4982178;28;20026;-77
2022/04/09 04:16:18;;;;;;;12.13;2.70;;;;;;;2.85;83.85;100687.47;5008010;28;20030;-77
2022/04/09 04:18:44;;;;;;;13.10;3.22;;;;;;;2.85;83.31;100695.97;5009257;28;20038;-78
2022/04/09 04:21:09;;;;;;;13.40;3.15;;;;;;;2.77;83.50;100697.28;4990151;28;20107;-78
2022/04/09 04:23:35;;;;;;;14.57;2.83;;;;;;;2.86;83.66;100712.16;5008459;28;20033;-78
2022/04/09 04:26:01;;;;;;;14.88;3.00;;;;;;;2.77;83.50;100702.41;5007400;28;20058;-78
2022/04/09 04:28:26;;;;;;;12.90;2.58;;;;;;;2.83;82.90;100707.22;5009198;28;20067;-77
2022/04/09 04:30:52;;;;;;;12.90;2.90;;;;;;;2.75;83.13;100704.19;4980892;28;20018;-78
2022/04/09 04:33:17;;;;;;;11.68;2.50;;;;;;;2.85;83.22;100720.75;4971503;28;20475;-77
2022/04/09 04:35:43;;;;;;;14.60;2.95;;;;;;;2.80;83.38;100721.00;4996689;28;20160;-78
2022/04/09 04:38:08;;;;;;;14.93;2.92;;;;;;;2.75;83.32;100714.44;5008213;28;20417;-77
2022/04/09 04:40:34;;;;;;;12.25;2.90;;;;;;;2.83;82.80;100727.72;5000202;28;20517;-77
2022/04/09 04:42:59;;;;;;;13.63;2.65;;;;;;;2.73;83.46;100718.84;5006079;28;20051;-78
2022/04/09 04:45:25;;;;;;;14.20;3.17;;;;;;;2.79;82.95;100726.19;4989953;28;20030;-78
2022/04/09 04:47:50;;;;;;;14.05;2.65;;;;;;;2.73;83.60;100731.63;4989731;28;20061;-78
2022/04/09 04:50:18;;;;;;;13.35;2.53;;;;;;;2.77;83.33;100733.16;5007728;28;20394;-78
2022/04/09 04:52:43;;;;;;;11.60;2.75;;;;;;;2.74;82.72;100728.16;4990679;28;20466;-78
2022/04/09 04:55:09;;;;;;;14.60;2.88;;;;;;;2.82;82.85;100749.13;4999935;28;20026;-78
2022/04/09 04:57:42;;;;;;;13.68;2.88;;;;;;;2.84;82.39;100752.41;4988052;28;20064;-78
2022/04/09 05:00:08;;;;;;;15.20;2.78;;;;;;;2.75;83.08;100746.00;4989849;28;20049;-78
2022/04/09 05:02:34;;;;;;;10.35;2.42;;;;;;;2.76;82.88;100746.88;4989525;28;20029;-78
2022/04/09 05:05:01;;;;;;;14.07;3.17;;;;;;;2.71;83.45;100753.94;4991471;28;20250;-78
2022/04/09 05:07:37;;;;;;;17.13;3.53;;;;;;;2.79;83.56;100767.19;5001055;28;20052;-78
2022/04/09 05:10:05;;;;;;;12.15;2.70;;;;;;;2.74;82.67;100769.13;4970310;28;20022;-78
2022/04/09 05:12:32;;;;;;;12.95;2.53;;;;;;;2.74;83.13;100764.84;4984229;28;20041;-77
2022/04/09 05:14:58;;;;;;;13.07;3.03;;;;;;;2.81;82.98;100775.59;5002767;28;20054;-77
2022/04/09 05:17:23;;;;;;;12.32;2.90;;;;;;;2.83;82.63;100789.19;4971076;28;20537;-78
2022/04/09 05:19:48;;;;;;;13.98;2.70;;;;;;;2.85;82.95;100792.47;5004957;28;20470;-77
2022/04/09 05:22:14;;;;;;;13.30;2.92;;;;;;;2.86;82.69;100799.25;4972940;28;20538;-78
2022/04/09 05:24:39;;;;;;;13.43;2.47;;;;;;;2.72;83.18;100770.97;5007508;28;20030;-78
2022/04/09 05:27:04;;;;;;;13.18;2.95;;;;;;;2.87;83.77;100798.38;4990155;28;20037;-78
2022/04/09 05:29:30;;;;;;;13.32;2.85;;;;;;;2.88;83.28;100803.41;4988716;28;20026;-78
2022/04/09 05:31:55;;;;;;;11.15;2.70;;;;;;;2.71;83.33;100779.56;4988885;28;20144;-77
2022/04/09 05:34:20;;;;;;;13.15;2.95;;;;;;;2.67;83.50;100784.81;4987461;28;20030;-78
2022/04/09 05:36:45;;;;;;;15.65;2.80;;;;;;;2.85;83.40;100812.97;4986546;28;20374;-78
2022/04/09 05:39:11;;;;;;;12.75;3.20;;;;;;;2.81;83.58;100801.22;4998978;28;20422;-77
2022/04/09 05:41:36;;;;;;;14.90;2.95;;;;;;;2.75;83.64;100798.97;4983003;28;20034;-78
2022/04/09 05:44:02;;;;;;;13.65;3.10;;;;;;;2.93;83.85;100831.38;4987651;28;20056;-78
2022/04/09 05:46:27;;;;;;;8.48;2.38;;;;;;;2.95;83.21;100834.66;4988182;28;20081;-78
2022/04/09 05:48:52;;;;;;;12.63;2.92;;;;;;;2.99;82.53;100833.63;4970740;28;20026;-78
2022/04/09 05:51:18;;;;;;;14.32;2.72;;;;;;;2.95;82.71;100829.56;4970685;28;20478;-79
2022/04/09 05:53:43;;;;;;;11.30;2.42;;;;;;;2.94;82.65;100822.78;4987892;28;20023;-78
2022/04/09 05:56:09;;;;;;;11.73;2.40;;;;;;;2.99;82.75;100825.13;4969939;28;20513;-78
2022/04/09 05:58:36;;;;;;;15.48;2.80;;;;;;;3.11;83.34;100845.81;5004213;28;20536;-79
2022/04/09 06:01:02;;;;;;;14.85;3.25;;;;;;;3.05;82.96;100835.88;5003500;28;20109;-78
2022/04/09 06:03:27;;;;;;;12.23;2.78;;;;;;;3.15;82.94;100856.72;4987166;28;20562;-78
2022/04/09 06:05:52;;;;;;;17.98;3.08;;;;;;;3.23;83.05;100858.91;4987189;28;20490;-78
2022/04/09 06:08:18;;;;;;;15.45;4.00;;;;;;;3.22;83.53;100858.09;4969895;28;20110;-78
2022/04/09 06:10:43;;;;;;;16.23;2.90;;;;;;;3.28;83.06;100867.22;4989851;28;20026;-78
2022/04/09 06:13:10;;;;;;;12.68;3.03;;;;;;;3.29;83.33;100863.75;5008722;28;20101;-78
2022/04/09 06:15:35;;;;;;;14.88;3.30;;;;;;;3.36;83.79;100885.59;5010205;28;20398;-78
2022/04/09 06:18:06;;;;;;;13.82;3.20;;;;;;;3.44;83.66;100883.44;4994512;28;20034;-78
2022/04/09 06:20:31;;;;;;;14.38;3.08;;;;;;;3.42;83.66;100875.84;4992494;28;20057;-78
2022/04/09 06:22:56;;;;;;;14.98;2.85;;;;;;;3.57;83.83;100883.66;5010250;28;20104;-78
2022/04/09 06:25:22;;;;;;;12.68;3.20;;;;;;;3.70;84.53;100895.78;4989995;28;20038;-78
2022/04/09 06:27:47;;;;;;;13.05;3.08;;;;;;;3.81;83.87;100892.66;4991518;28;20037;-78
2022/04/09 06:30:13;;;;;;;12.35;2.60;;;;;;;3.94;83.01;100913.34;4972983;28;20034;-78
2022/04/09 06:32:39;;;;;;;12.00;2.63;;;;;;;3.92;82.50;100889.53;4995812;28;20469;-78
2022/04/09 06:35:05;;;;;;;9.13;2.10;;;;;;;4.06;81.59;100902.44;5000878;28;20022;-78
2022/04/09 06:37:31;;;;;;;10.93;2.63;;;;;;;4.11;80.11;100900.47;4996643;28;20045;-79
2022/04/09 06:39:56;;;;;;;9.52;1.95;;;;;;;4.22;80.10;100917.84;4990733;28;20395;-79
2022/04/09 06:42:21;;;;;;;9.32;2.10;;;;;;;4.22;79.78;100923.00;4990820;28;20467;-78
2022/04/09 06:44:47;;;;;;;11.55;2.15;;;;;;;4.36;79.26;100932.50;4989384;28;20061;-78
2022/04/09 06:47:12;;;;;;;8.88;1.70;;;;;;;4.41;79.07;100938.22;4988434;28;20133;-78
2022/04/09 06:49:38;;;;;;;7.55;1.75;;;;;;;4.47;78.85;100937.91;4989087;28;20363;-78
2022/04/09 06:52:04;;;;;;;9.10;1.80;;;;;;;4.47;78.42;100932.75;4987642;28;20119;-78
2022/04/09 06:54:29;;;;;;;7.43;1.90;;;;;;;4.44;78.54;100928.63;4988260;28;20145;-78
2022/04/09 06:56:55;;;;;;;8.30;2.05;;;;;;;4.51;78.57;100932.50;4989822;28;20102;-78
2022/04/09 06:59:20;;;;;;;9.55;2.10;;;;;;;4.53;77.95;100932.44;4989073;28;20030;-78
2022/04/09 07:01:45;;;;;;;9.85;2.15;;;;;;;4.58;78.60;100935.56;4993505;28;20023;-78
2022/04/09 07:04:10;;;;;;;9.27;2.20;;;;;;;4.72;78.77;100948.50;4989097;28;20475;-78
2022/04/09 07:06:36;;;;;;;8.48;1.83;;;;;;;4.48;78.44;100898.50;4988428;28;20034;-79
2022/04/09 07:09:01;;;;;;;7.85;2.17;;;;;;;4.80;78.26;100946.31;4989276;28;20273;-78
2022/04/09 07:11:27;;;;;;;8.02;2.58;;;;;;;4.72;77.99;100947.69;4989570;28;20053;-79
2022/04/09 07:13:52;;;;;;;10.40;2.38;;;;;;;4.81;77.33;100952.28;4991324;28;20026;-78
2022/04/09 07:16:18;;;;;;;7.13;2.00;;;;;;;4.82;76.70;100945.41;4989564;28;20053;-78
2022/04/09 07:18:43;;;;;;;8.35;1.98;;;;;;;4.86;75.27;100947.72;4989629;28;20376;-78
2022/04/09 07:21:08;;;;;;;8.45;1.95;;;;;;;4.99;75.25;100960.75;4988391;28;20442;-78
2022/04/09 07:23:34;;;;;;;7.45;1.98;;;;;;;5.08;76.15;100957.63;5002855;28;20025;-78
2022/04/09 07:25:59;;;;;;;10.50;2.38;;;;;;;5.09;75.78;100972.13;5009009;28;20453;-78
2022/04/09 07:28:24;;;;;;;11.77;2.22;;;;;;;5.10;75.88;100958.38;4993944;28;20034;-78
2022/04/09 07:30:50;;;;;;;8.80;2.40;;;;;;;5.17;75.35;100980.28;4989946;28;20022;-77
2022/04/09 07:33:15;;;;;;;7.20;2.20;;;;;;;5.25;74.53;100972.94;5005864;28;20041;-76
2022/04/09 07:35:41;;;;;;;6.90;1.70;;;;;;;5.24;76.40;100976.44;4975334;28;20026;-78
2022/04/09 07:38:07;;;;;;;7.25;1.83;;;;;;;5.26;74.83;100979.72;4992250;28;20034;-78
2022/04/09 07:40:33;;;;;;;4.47;1.30;;;;;;;5.21;75.57;100984.31;4989778;28;20038;-77
2022/04/09 07:43:00;;;;;;;3.38;1.00;;;;;;;5.19;75.77;100993.84;5001811;28;20038;-78
2022/04/09 07:45:26;;;;;;;3.55;1.10;;;;;;;5.07;75.75;100994.53;5008589;28;20064;-78
2022/04/09 07:47:56;;;;;;;3.95;1.20;;;;;;;4.90;76.05;100981.81;4991193;28;20414;-78
2022/04/09 07:50:22;;;;;;;5.10;1.23;;;;;;;4.84;76.41;100993.25;5009614;28;20041;-78
2022/04/09 07:52:47;;;;;;;7.68;1.80;;;;;;;4.79;76.19;101001.19;5008323;28;20041;-78
2022/04/09 07:55:16;;;;;;;7.35;1.40;;;;;;;4.73;75.85;100993.00;5008457;28;20022;-78
2022/04/09 07:57:46;;;;;;;5.10;1.65;;;;;;;4.71;76.22;100998.22;4990379;28;20036;-78
2022/04/09 08:00:13;;;;;;;5.93;1.65;;;;;;;4.75;76.73;100988.59;4990621;28;20026;-78
2022/04/09 08:02:38;;;;;;;6.40;1.65;;;;;;;4.79;76.66;101011.47;4994137;28;20038;-78
2022/04/09 08:05:04;;;;;;;5.85;1.55;;;;;;;4.86;77.15;101016.28;4970908;28;20038;-78
2022/04/09 08:07:30;;;;;;;8.70;2.08;;;;;;;4.80;76.70;101008.00;4962848;28;20037;-77
2022/04/09 08:09:55;;;;;;;8.10;2.20;;;;;;;4.82;76.81;101014.78;5008217;28;20022;-77
2022/04/09 08:12:20;;;;;;;8.55;2.10;;;;;;;4.88;76.81;101029.91;5002519;28;20045;-77
2022/04/09 08:14:46;;;;;;;11.23;2.75;;;;;;;4.80;77.30;101028.56;4989050;28;20056;-78
2022/04/09 08:17:11;;;;;;;9.23;2.70;;;;;;;4.85;77.69;101036.03;4988379;28;20054;-78
2022/04/09 08:19:37;;;;;;;8.77;2.70;;;;;;;4.89;78.07;101052.13;4988643;28;20030;-78
2022/04/09 08:22:04;;;;;;;10.68;3.22;;;;;;;4.90;78.54;101053.75;4988494;28;20037;-78
2022/04/09 08:24:29;;;;;;;11.48;2.90;;;;;;;4.88;79.51;101050.47;4988337;28;20056;-78
2022/04/09 08:26:55;;;;;;;11.70;3.15;;;;;;;4.92;79.99;101055.31;4988312;28;20382;-78
2022/04/09 08:29:20;;;;;;;9.90;2.95;;;;;;;4.90;80.30;101048.63;4988207;28;20077;-77
2022/04/09 08:31:49;;;;;;;10.35;2.80;;;;;;;4.89;80.41;101046.97;4991237;28;20617;-78
2022/04/09 08:34:14;;;;;;;10.90;3.03;;;;;;;4.93;80.13;101053.59;5007937;28;20051;-78
2022/04/09 08:36:40;;;;;;;12.77;3.53;;;;;;;4.92;80.35;101057.91;4971605;28;20038;-78
2022/04/09 08:39:05;;;;;;;8.90;2.45;;;;;;;4.99;79.00;101053.28;5007137;28;20030;-77
2022/04/09 08:41:30;;;;;;;9.30;2.55;;;;;;;5.11;80.11;101046.63;4988810;28;20026;-76
2022/04/09 08:43:56;;;;;;;11.15;2.60;;;;;;;5.27;79.65;101043.09;4997614;28;20080;-77
2022/04/09 08:46:25;;;;;;;9.02;2.38;;;;;;;5.45;79.69;101040.41;5002877;28;20093;-77
2022/04/09 08:48:50;;;;;;;7.72;2.08;;;;;;;5.55;79.17;101036.41;4971106;28;20092;-77
2022/04/09 08:51:16;;;;;;;9.90;2.17;;;;;;;5.70;78.77;101045.00;4987729;28;20066;-78
2022/04/09 08:53:43;;;;;;;11.93;2.35;;;;;;;5.93;79.80;101049.66;4990061;28;20058;-80
2022/04/09 08:56:11;;;;;;;8.60;2.33;;;;;;;5.97;77.87;101042.59;4986881;28;20537;-78
2022/04/09 08:58:36;;;;;;;9.10;2.60;;;;;;;6.16;77.88;101053.47;4968794;28;20129;-77
2022/04/09 09:01:02;;;;;;;10.98;2.88;;;;;;;6.22;76.01;101057.41;4988633;28;20110;-77
2022/04/09 09:03:27;;;;;;;11.30;2.80;;;;;;;6.29;75.69;101071.56;4986296;28;20037;-77
2022/04/09 09:05:52;;;;;;;11.00;2.65;;;;;;;6.41;75.87;101067.44;4987770;28;20026;-77
2022/04/09 09:08:39;;;;;;;11.20;2.83;;;;;;;6.45;76.39;101058.63;4989580;28;20041;-77
2022/04/09 09:11:05;;;;;;;9.77;2.55;;;;;;;6.64;76.44;101074.59;4986634;28;20040;-77
2022/04/09 09:13:45;;;;;;;8.90;2.67;;;;;;;6.76;76.55;101068.69;4987591;28;20027;-78
2022/04/09 09:16:22;;;;;;;10.25;2.75;;;;;;;7.01;76.35;101077.50;4988054;28;20018;-77
2022/04/09 09:18:51;;;;;;;6.45;1.80;;;;;;;6.95;72.38;101090.78;4987679;28;20073;-78
2022/04/09 09:21:18;;;;;;;2.08;0.55;;;;;;;6.59;63.88;101099.81;4985909;28;20041;-78
2022/04/09 09:23:43;;;;;;;3.50;0.80;;;;;;;6.30;65.22;101097.25;4987006;28;20022;-78
2022/04/09 09:26:09;;;;;;;1.60;0.60;;;;;;;6.16;68.05;101107.53;4993821;28;20483;-78
2022/04/09 09:28:34;;;;;;;2.35;1.00;;;;;;;6.01;68.96;101100.69;4994849;28;20113;-77
2022/04/09 09:31:01;;;;;;;2.28;0.68;;;;;;;5.95;67.72;101111.34;4987836;28;20117;-77
2022/04/09 09:33:27;;;;;;;2.60;0.73;;;;;;;5.98;68.48;101106.03;4988464;28;20045;-78
2022/04/09 09:35:59;;;;;;;3.33;0.82;;;;;;;6.14;69.61;101117.13;5009860;28;20066;-75
2022/04/09 09:38:31;;;;;;;5.40;0.90;;;;;;;6.26;69.73;101131.84;4994661;28;20025;-73
2022/04/09 09:40:57;;;;;;;2.40;0.70;;;;;;;6.29;70.18;101121.34;5009090;28;20042;-76
2022/04/09 09:43:25;;;;;;;3.00;0.98;;;;;;;6.27;70.73;101097.44;5009625;28;20501;-77
2022/04/09 09:45:53;;;;;;;2.33;0.80;;;;;;;6.60;72.25;101132.44;4990800;28;20030;-76
2022/04/09 09:48:19;;;;;;;1.33;0.60;;;;;;;6.49;67.21;101124.50;4995373;28;20466;-76
2022/04/09 09:50:45;;;;;;;2.67;0.65;;;;;;;6.33;66.51;101142.63;4998358;28;20037;-76
2022/04/09 09:53:10;;;;;;;2.33;0.70;;;;;;;6.31;68.90;101140.13;5013427;28;20572;-76
2022/04/09 09:55:43;;;;;;;3.40;0.82;;;;;;;6.28;67.62;101140.31;4983844;28;20026;-77
2022/04/09 09:58:15;;;;;;;3.28;0.85;;;;;;;6.31;67.79;101154.75;4997393;28;20036;-76
2022/04/09 10:00:40;;;;;;;2.30;0.90;;;;;;;6.31;67.41;101171.03;4999046;28;20111;-76
2022/04/09 10:03:07;;;;;;;3.17;1.10;;;;;;;6.31;66.81;101165.91;5012364;28;20084;-75
2022/04/09 10:05:34;;;;;;;3.22;1.00;;;;;;;6.36;65.24;101173.31;5011384;28;20045;-75
2022/04/09 10:08:00;;;;;;;3.63;0.90;;;;;;;6.34;66.61;101173.44;5006179;28;20034;-76
2022/04/09 10:10:27;;;;;;;4.10;0.88;;;;;;;6.49;69.20;101191.50;5010723;28;20022;-74
2022/04/09 10:12:55;;;;;;;3.15;0.90;;;;;;;6.48;67.99;101187.25;4994553;28;20145;-75
2022/04/09 10:15:25;;;;;;;5.97;1.20;;;;;;;6.38;67.47;101187.78;4993731;28;20459;-76
2022/04/09 10:17:53;;;;;;;2.90;1.10;;;;;;;6.21;68.45;101180.22;5006725;28;20522;-77
2022/04/09 10:20:19;;;;;;;3.15;0.88;;;;;;;5.88;64.93;101166.66;5010067;28;20477;-82
2022/04/09 10:22:46;;;;;;;2.45;1.02;;;;;;;5.67;65.22;101172.06;5009880;28;20424;-77
2022/04/09 10:25:14;;;;;;;3.10;0.90;;;;;;;5.55;65.65;101180.47;5009744;28;20041;-77
2022/04/09 10:27:42;;;;;;;3.47;1.10;;;;;;;5.50;66.98;101182.47;5006630;28;20528;-73
2022/04/09 10:30:19;;;;;;;3.90;1.20;;;;;;;5.45;69.57;101187.03;4990695;28;20490;-78
2022/04/09 10:32:51;;;;;;;5.30;1.40;;;;;;;5.44;72.29;101198.22;4991280;28;20038;-77
2022/04/09 10:35:27;;;;;;;4.68;1.10;;;;;;;5.41;73.46;101203.56;5004240;28;20037;-78
2022/04/09 10:38:07;;;;;;;5.53;1.30;;;;;;;5.25;73.85;101219.81;4989778;28;20038;-78
2022/04/09 10:40:45;;;;;;;4.85;1.40;;;;;;;4.94;75.98;101230.88;4991135;28;20033;-76
2022/04/09 10:43:48;;;;;;;6.20;1.60;;;;;;;4.74;76.10;101224.16;4998834;28;20117;-75
2022/04/09 10:46:19;;;;;;;5.28;1.85;;;;;;;4.48;75.62;101217.78;4995055;28;20081;-77
2022/04/09 10:48:44;;;;;;;6.32;1.92;;;;;;;4.45;77.22;101206.81;4998261;28;20033;-77
2022/04/09 10:51:11;;;;;;;7.28;1.83;;;;;;;4.42;77.08;101191.59;4976711;28;20038;-77
2022/04/09 10:53:45;;;;;;;5.10;1.52;;;;;;;4.39;78.01;101186.59;4993893;28;20025;-78
2022/04/09 10:56:28;;;;;;;6.68;1.85;;;;;;;4.54;78.69;101193.53;4994031;28;20080;-77
2022/04/09 10:59:06;;;;;;;7.45;1.90;;;;;;;4.68;79.47;101192.81;4994410;28;20120;-78
2022/04/09 11:01:46;;;;;;;9.85;1.90;;;;;;;4.73;78.65;101181.41;4990380;28;20034;-77
2022/04/09 11:04:36;;;;;;;7.60;2.20;;;;;;;4.87;79.13;101187.56;4984133;28;20477;-77
2022/04/09 11:07:02;;;;;;;8.10;2.45;;;;;;;5.20;81.96;101182.38;4972434;28;20076;-77
2022/04/09 11:09:49;;;;;;;10.32;2.65;;;;;;;5.39;79.76;101179.66;4972256;28;20340;-77
2022/04/09 11:12:20;;;;;;;9.27;2.75;;;;;;;5.71;81.60;101180.47;4989825;28;20030;-77
2022/04/09 11:14:54;;;;;;;9.30;2.58;;;;;;;5.94;79.64;101181.78;4971567;28;20054;-77
2022/04/09 11:17:25;;;;;;;13.98;3.10;;;;;;;6.19;80.77;101183.78;4993449;28;20078;-77
2022/04/09 11:19:51;;;;;;;9.20;3.00;;;;;;;6.47;81.23;101206.19;4991490;28;20036;-77
2022/04/09 11:22:17;;;;;;;4.95;1.25;;;;;;;6.27;75.93;101222.81;4977399;28;20100;-77
2022/04/09 11:24:43;;;;;;;3.38;1.10;;;;;;;5.94;74.41;101233.28;4998939;28;20038;-78
2022/04/09 11:27:10;;;;;;;5.13;1.20;;;;;;;5.65;75.22;101227.94;4970793;28;20155;-78